sensor_id;sensor_type;location;lat;lon;timestamp;pressure;altitude;pressure_sealevel;temperature;humidity
79481;BME280;68944;48.262;14.208;2023-07-31T00:00:13;98341.28;;;20.05;57.31
79481;BME280;68944;48.262;14.208;2023-07-31T00:02:39;98341.78;;;20.07;57.11
79481;BME280;68944;48.262;14.208;2023-07-31T00:05:04;98342.16;;;19.95;57.37
79481;BME280;68944;48.262;14.208;2023-07-31T00:07:31;98344.03;;;19.95;56.96
79481;BME280;68944;48.262;14.208;2023-07-31T00:09:56;98349.97;;;19.92;56.63
79481;BME280;68944;48.262;14.208;2023-07-31T00:12:22;98349.34;;;19.70;57.02
79481;BME280;68944;48.262;14.208;2023-07-31T00:14:48;98353.59;;;19.71;57.51
79481;BME280;68944;48.262;14.208;2023-07-31T00:17:14;98355.03;;;19.63;57.51
79481;BME280;68944;48.262;14.208;2023-07-31T00:19:39;98354.00;;;19.54;57.08
79481;BME280;68944;48.262;14.208;2023-07-31T00:22:05;98356.41;;;19.55;57.30
79481;BME280;68944;48.262;14.208;2023-07-31T00:24:30;98362.00;;;19.59;57.04
79481;BME280;68944;48.262;14.208;2023-07-31T00:26:56;98372.75;;;19.64;57.03
79481;BME280;68944;48.262;14.208;2023-07-31T00:29:21;98362.56;;;19.61;57.20
79481;BME280;68944;48.262;14.208;2023-07-31T00:31:47;98372.06;;;19.83;57.16
79481;BME280;68944;48.262;14.208;2023-07-31T00:34:12;98364.47;;;19.96;56.96
79481;BME280;68944;48.262;14.208;2023-07-31T00:36:38;98365.84;;;19.93;56.75
79481;BME280;68944;48.262;14.208;2023-07-31T00:39:04;98365.31;;;19.91;57.00
79481;BME280;68944;48.262;14.208;2023-07-31T00:41:30;98363.66;;;19.95;56.67
79481;BME280;68944;48.262;14.208;2023-07-31T00:43:55;98366.31;;;20.00;56.53
79481;BME280;68944;48.262;14.208;2023-07-31T00:46:21;98373.28;;;20.01;57.00
79481;BME280;68944;48.262;14.208;2023-07-31T00:48:46;98370.81;;;20.10;57.26
79481;BME280;68944;48.262;14.208;2023-07-31T00:51:12;98365.44;;;20.10;57.06
79481;BME280;68944;48.262;14.208;2023-07-31T00:53:38;98363.75;;;20.20;57.06
79481;BME280;68944;48.262;14.208;2023-07-31T00:56:06;98372.63;;;20.20;57.30
79481;BME280;68944;48.262;14.208;2023-07-31T00:58:31;98368.38;;;20.14;57.96
79481;BME280;68944;48.262;14.208;2023-07-31T01:00:57;98366.19;;;20.21;57.82
79481;BME280;68944;48.262;14.208;2023-07-31T01:03:23;98371.88;;;20.15;58.14
79481;BME280;68944;48.262;14.208;2023-07-31T01:09:00;98367.53;;;20.19;57.51
79481;BME280;68944;48.262;14.208;2023-07-31T01:11:30;98371.81;;;20.20;57.22
79481;BME280;68944;48.262;14.208;2023-07-31T01:13:57;98372.09;;;20.18;57.36
79481;BME280;68944;48.262;14.208;2023-07-31T01:16:25;98368.66;;;20.12;56.93
79481;BME280;68944;48.262;14.208;2023-07-31T01:18:51;98354.19;;;20.03;57.02
79481;BME280;68944;48.262;14.208;2023-07-31T01:26:34;98355.06;;;19.93;57.35
79481;BME280;68944;48.262;14.208;2023-07-31T01:29:07;98357.56;;;19.84;57.77
79481;BME280;68944;48.262;14.208;2023-07-31T01:31:34;98364.31;;;19.82;57.85
79481;BME280;68944;48.262;14.208;2023-07-31T01:34:02;98364.44;;;19.61;58.42
79481;BME280;68944;48.262;14.208;2023-07-31T01:36:28;98358.34;;;19.50;58.39
79481;BME280;68944;48.262;14.208;2023-07-31T01:38:59;98353.50;;;19.52;58.73
79481;BME280;68944;48.262;14.208;2023-07-31T01:41:26;98358.16;;;19.36;59.36
79481;BME280;68944;48.262;14.208;2023-07-31T01:43:51;98360.03;;;19.35;59.38
79481;BME280;68944;48.262;14.208;2023-07-31T01:46:17;98349.84;;;19.27;59.62
79481;BME280;68944;48.262;14.208;2023-07-31T01:48:42;98357.66;;;19.23;59.78
79481;BME280;68944;48.262;14.208;2023-07-31T01:51:07;98352.81;;;19.25;59.43
79481;BME280;68944;48.262;14.208;2023-07-31T01:53:33;98345.59;;;19.20;59.61
79481;BME280;68944;48.262;14.208;2023-07-31T01:55:58;98350.13;;;19.25;59.30
79481;BME280;68944;48.262;14.208;2023-07-31T01:58:24;98341.44;;;19.39;59.04
79481;BME280;68944;48.262;14.208;2023-07-31T02:00:49;98351.34;;;19.49;58.72
79481;BME280;68944;48.262;14.208;2023-07-31T02:03:15;98346.50;;;19.51;58.66
79481;BME280;68944;48.262;14.208;2023-07-31T02:05:45;98353.22;;;19.48;58.74
79481;BME280;68944;48.262;14.208;2023-07-31T02:08:11;98349.19;;;19.51;58.54
79481;BME280;68944;48.262;14.208;2023-07-31T02:10:37;98352.97;;;19.50;58.90
79481;BME280;68944;48.262;14.208;2023-07-31T02:13:02;98349.06;;;19.26;59.42
79481;BME280;68944;48.262;14.208;2023-07-31T02:15:32;98341.06;;;19.05;60.18
79481;BME280;68944;48.262;14.208;2023-07-31T02:17:58;98342.50;;;18.87;60.84
79481;BME280;68944;48.262;14.208;2023-07-31T02:20:24;98344.66;;;18.80;61.45
79481;BME280;68944;48.262;14.208;2023-07-31T02:22:50;98352.19;;;18.72;62.28
79481;BME280;68944;48.262;14.208;2023-07-31T02:25:16;98351.06;;;18.84;61.52
79481;BME280;68944;48.262;14.208;2023-07-31T02:27:42;98350.78;;;18.85;61.56
79481;BME280;68944;48.262;14.208;2023-07-31T02:30:08;98348.69;;;18.82;61.74
79481;BME280;68944;48.262;14.208;2023-07-31T02:32:33;98345.72;;;18.84;61.48
79481;BME280;68944;48.262;14.208;2023-07-31T02:34:59;98346.22;;;18.96;61.35
79481;BME280;68944;48.262;14.208;2023-07-31T02:37:25;98335.72;;;19.00;60.89
79481;BME280;68944;48.262;14.208;2023-07-31T02:39:51;98330.56;;;19.09;60.29
79481;BME280;68944;48.262;14.208;2023-07-31T02:42:16;98336.47;;;19.11;60.68
79481;BME280;68944;48.262;14.208;2023-07-31T02:44:42;98327.88;;;19.09;60.23
79481;BME280;68944;48.262;14.208;2023-07-31T02:47:08;98337.28;;;19.12;60.51
79481;BME280;68944;48.262;14.208;2023-07-31T02:49:33;98332.50;;;19.03;60.36
79481;BME280;68944;48.262;14.208;2023-07-31T02:51:59;98342.13;;;19.04;60.72
79481;BME280;68944;48.262;14.208;2023-07-31T02:54:24;98345.38;;;19.01;60.55
79481;BME280;68944;48.262;14.208;2023-07-31T02:56:50;98350.78;;;18.96;60.52
79481;BME280;68944;48.262;14.208;2023-07-31T02:59:16;98347.28;;;18.90;60.67
79481;BME280;68944;48.262;14.208;2023-07-31T03:01:42;98343.03;;;18.73;61.01
79481;BME280;68944;48.262;14.208;2023-07-31T03:04:07;98337.19;;;18.66;61.00
79481;BME280;68944;48.262;14.208;2023-07-31T03:06:33;98344.44;;;18.55;61.43
79481;BME280;68944;48.262;14.208;2023-07-31T03:08:58;98339.88;;;18.50;61.41
79481;BME280;68944;48.262;14.208;2023-07-31T03:11:23;98340.41;;;18.52;61.39
79481;BME280;68944;48.262;14.208;2023-07-31T03:13:49;98342.06;;;18.27;61.01
79481;BME280;68944;48.262;14.208;2023-07-31T03:16:14;98341.53;;;18.10;61.63
79481;BME280;68944;48.262;14.208;2023-07-31T03:18:40;98334.31;;;18.26;61.33
79481;BME280;68944;48.262;14.208;2023-07-31T03:21:06;98341.50;;;18.41;60.77
79481;BME280;68944;48.262;14.208;2023-07-31T03:23:32;98355.22;;;18.29;60.88
79481;BME280;68944;48.262;14.208;2023-07-31T03:25:59;98345.31;;;18.19;60.45
79481;BME280;68944;48.262;14.208;2023-07-31T03:28:27;98346.91;;;18.30;60.07
79481;BME280;68944;48.262;14.208;2023-07-31T03:30:53;98347.44;;;18.27;59.81
79481;BME280;68944;48.262;14.208;2023-07-31T03:33:19;98344.75;;;18.33;59.59
79481;BME280;68944;48.262;14.208;2023-07-31T03:35:45;98349.06;;;18.34;59.57
79481;BME280;68944;48.262;14.208;2023-07-31T03:38:10;98358.97;;;18.33;59.75
79481;BME280;68944;48.262;14.208;2023-07-31T03:40:36;98359.22;;;18.16;59.75
79481;BME280;68944;48.262;14.208;2023-07-31T03:43:01;98365.38;;;18.11;59.70
79481;BME280;68944;48.262;14.208;2023-07-31T03:45:27;98368.59;;;18.13;59.86
79481;BME280;68944;48.262;14.208;2023-07-31T03:47:53;98354.94;;;18.30;59.51
79481;BME280;68944;48.262;14.208;2023-07-31T03:50:20;98361.09;;;18.47;59.10
79481;BME280;68944;48.262;14.208;2023-07-31T03:52:46;98351.72;;;18.55;59.32
79481;BME280;68944;48.262;14.208;2023-07-31T03:55:11;98358.13;;;18.64;59.15
79481;BME280;68944;48.262;14.208;2023-07-31T03:57:37;98358.66;;;18.66;58.64
79481;BME280;68944;48.262;14.208;2023-07-31T04:00:02;98354.63;;;18.53;58.82
79481;BME280;68944;48.262;14.208;2023-07-31T04:02:37;98346.34;;;18.55;58.85
79481;BME280;68944;48.262;14.208;2023-07-31T04:05:03;98357.06;;;18.55;58.96
79481;BME280;68944;48.262;14.208;2023-07-31T04:07:28;98347.44;;;18.43;59.51
79481;BME280;68944;48.262;14.208;2023-07-31T04:09:54;98350.41;;;18.26;59.71
79481;BME280;68944;48.262;14.208;2023-07-31T04:12:19;98345.84;;;18.11;60.29
79481;BME280;68944;48.262;14.208;2023-07-31T04:14:45;98335.91;;;18.06;60.11
79481;BME280;68944;48.262;14.208;2023-07-31T04:17:10;98356.84;;;18.19;60.18
79481;BME280;68944;48.262;14.208;2023-07-31T04:19:36;98343.69;;;18.28;59.83
79481;BME280;68944;48.262;14.208;2023-07-31T04:22:01;98349.59;;;18.20;59.76
79481;BME280;68944;48.262;14.208;2023-07-31T04:24:27;98353.34;;;18.29;59.67
79481;BME280;68944;48.262;14.208;2023-07-31T04:26:53;98345.28;;;18.40;59.46
79481;BME280;68944;48.262;14.208;2023-07-31T04:29:19;98349.03;;;18.49;58.86
79481;BME280;68944;48.262;14.208;2023-07-31T04:31:45;98340.41;;;18.52;58.36
79481;BME280;68944;48.262;14.208;2023-07-31T04:34:10;98346.59;;;18.58;58.25
79481;BME280;68944;48.262;14.208;2023-07-31T04:36:37;98357.84;;;18.60;58.28
79481;BME280;68944;48.262;14.208;2023-07-31T04:39:02;98350.91;;;18.54;58.76
79481;BME280;68944;48.262;14.208;2023-07-31T04:41:28;98341.50;;;18.41;58.89
79481;BME280;68944;48.262;14.208;2023-07-31T04:43:53;98349.56;;;18.41;58.94
79481;BME280;68944;48.262;14.208;2023-07-31T04:46:19;98356.78;;;18.51;58.95
79481;BME280;68944;48.262;14.208;2023-07-31T04:48:45;98357.34;;;18.48;59.22
79481;BME280;68944;48.262;14.208;2023-07-31T04:51:10;98347.16;;;18.34;59.19
79481;BME280;68944;48.262;14.208;2023-07-31T04:53:36;98354.41;;;18.23;59.46
79481;BME280;68944;48.262;14.208;2023-07-31T04:56:02;98344.78;;;18.22;59.35
79481;BME280;68944;48.262;14.208;2023-07-31T04:58:28;98354.94;;;18.36;59.16
79481;BME280;68944;48.262;14.208;2023-07-31T05:00:53;98356.03;;;18.19;59.51
79481;BME280;68944;48.262;14.208;2023-07-31T05:03:19;98357.09;;;18.23;59.59
79481;BME280;68944;48.262;14.208;2023-07-31T05:05:44;98357.09;;;18.23;59.55
79481;BME280;68944;48.262;14.208;2023-07-31T05:08:09;98358.69;;;18.35;59.64
79481;BME280;68944;48.262;14.208;2023-07-31T05:10:35;98363.78;;;18.47;59.58
79481;BME280;68944;48.262;14.208;2023-07-31T05:13:00;98354.41;;;18.49;59.47
79481;BME280;68944;48.262;14.208;2023-07-31T05:15:26;98351.97;;;18.53;59.51
79481;BME280;68944;48.262;14.208;2023-07-31T05:17:51;98358.66;;;18.66;59.47
79481;BME280;68944;48.262;14.208;2023-07-31T05:20:17;98337.19;;;18.66;59.74
79481;BME280;68944;48.262;14.208;2023-07-31T05:22:42;98343.84;;;18.74;59.93
79481;BME280;68944;48.262;14.208;2023-07-31T05:25:08;98353.75;;;18.84;59.41
79481;BME280;68944;48.262;14.208;2023-07-31T05:27:33;98351.59;;;18.86;59.55
79481;BME280;68944;48.262;14.208;2023-07-31T05:29:59;98352.66;;;18.90;59.56
79481;BME280;68944;48.262;14.208;2023-07-31T05:32:25;98346.25;;;18.86;59.85
79481;BME280;68944;48.262;14.208;2023-07-31T05:34:51;98348.63;;;18.93;59.70
79481;BME280;68944;48.262;14.208;2023-07-31T05:37:17;98340.28;;;18.99;59.76
79481;BME280;68944;48.262;14.208;2023-07-31T05:39:43;98343.19;;;19.08;59.72
79481;BME280;68944;48.262;14.208;2023-07-31T05:42:09;98349.16;;;18.95;59.28
79481;BME280;68944;48.262;14.208;2023-07-31T05:44:34;98337.81;;;19.08;58.95
79481;BME280;68944;48.262;14.208;2023-07-31T05:47:00;98339.72;;;19.08;58.13
79481;BME280;68944;48.262;14.208;2023-07-31T05:49:25;98346.66;;;19.14;58.10
79481;BME280;68944;48.262;14.208;2023-07-31T05:51:51;98340.47;;;19.14;57.42
79481;BME280;68944;48.262;14.208;2023-07-31T05:54:16;98348.53;;;19.14;57.44
79481;BME280;68944;48.262;14.208;2023-07-31T05:56:42;98347.47;;;19.15;57.60
79481;BME280;68944;48.262;14.208;2023-07-31T05:59:09;98348.28;;;19.20;57.92
79481;BME280;68944;48.262;14.208;2023-07-31T06:01:35;98352.81;;;19.20;57.47
79481;BME280;68944;48.262;14.208;2023-07-31T06:04:01;98342.88;;;19.15;57.08
79481;BME280;68944;48.262;14.208;2023-07-31T06:06:27;98355.28;;;19.16;56.23
79481;BME280;68944;48.262;14.208;2023-07-31T06:08:53;98352.56;;;19.21;57.07
79481;BME280;68944;48.262;14.208;2023-07-31T06:11:20;98353.63;;;19.26;57.15
79481;BME280;68944;48.262;14.208;2023-07-31T06:13:45;98352.50;;;19.32;57.19
79481;BME280;68944;48.262;14.208;2023-07-31T06:16:13;98329.94;;;19.33;57.07
79481;BME280;68944;48.262;14.208;2023-07-31T06:18:39;98332.56;;;19.43;55.76
79481;BME280;68944;48.262;14.208;2023-07-31T06:21:04;98337.09;;;19.48;55.13
79481;BME280;68944;48.262;14.208;2023-07-31T06:23:30;98343.19;;;19.64;55.77
79481;BME280;68944;48.262;14.208;2023-07-31T06:25:55;98344.47;;;19.72;55.07
79481;BME280;68944;48.262;14.208;2023-07-31T06:28:21;98349.53;;;19.79;55.12
79481;BME280;68944;48.262;14.208;2023-07-31T06:30:46;98340.06;;;19.87;55.36
79481;BME280;68944;48.262;14.208;2023-07-31T06:33:12;98350.06;;;19.81;54.89
79481;BME280;68944;48.262;14.208;2023-07-31T06:35:38;98341.44;;;19.84;55.00
79481;BME280;68944;48.262;14.208;2023-07-31T06:38:03;98338.75;;;19.84;54.59
79481;BME280;68944;48.262;14.208;2023-07-31T06:40:29;98343.31;;;19.84;55.17
79481;BME280;68944;48.262;14.208;2023-07-31T06:42:55;98338.69;;;19.89;55.34
79481;BME280;68944;48.262;14.208;2023-07-31T06:45:20;98340.31;;;19.90;55.99
79481;BME280;68944;48.262;14.208;2023-07-31T06:47:47;98345.16;;;19.88;56.13
79481;BME280;68944;48.262;14.208;2023-07-31T06:50:12;98345.59;;;20.01;55.70
79481;BME280;68944;48.262;14.208;2023-07-31T06:52:38;98341.03;;;20.01;55.59
79481;BME280;68944;48.262;14.208;2023-07-31T06:55:16;98348.47;;;20.15;55.44
79481;BME280;68944;48.262;14.208;2023-07-31T06:57:48;98337.31;;;20.27;55.14
79481;BME280;68944;48.262;14.208;2023-07-31T07:00:14;98334.72;;;20.46;55.52
79481;BME280;68944;48.262;14.208;2023-07-31T07:02:42;98335.88;;;20.65;55.13
79481;BME280;68944;48.262;14.208;2023-07-31T07:05:08;98326.31;;;20.78;53.83
79481;BME280;68944;48.262;14.208;2023-07-31T07:07:34;98333.00;;;20.80;52.17
79481;BME280;68944;48.262;14.208;2023-07-31T07:10:00;98318.69;;;20.85;52.60
79481;BME280;68944;48.262;14.208;2023-07-31T07:12:28;98330.91;;;21.02;53.23
79481;BME280;68944;48.262;14.208;2023-07-31T07:14:54;98324.34;;;21.08;52.19
79481;BME280;68944;48.262;14.208;2023-07-31T07:17:20;98330.56;;;21.28;52.67
79481;BME280;68944;48.262;14.208;2023-07-31T07:19:47;98322.84;;;21.41;51.20
79481;BME280;68944;48.262;14.208;2023-07-31T07:22:13;98312.56;;;21.43;50.19
79481;BME280;68944;48.262;14.208;2023-07-31T07:24:39;98317.44;;;21.41;49.25
79481;BME280;68944;48.262;14.208;2023-07-31T07:27:04;98329.41;;;21.34;49.33
79481;BME280;68944;48.262;14.208;2023-07-31T07:29:30;98326.91;;;21.38;49.60
79481;BME280;68944;48.262;14.208;2023-07-31T07:31:55;98313.16;;;21.20;48.83
79481;BME280;68944;48.262;14.208;2023-07-31T07:34:26;98319.34;;;21.40;49.39
79481;BME280;68944;48.262;14.208;2023-07-31T07:36:52;98319.25;;;21.45;48.85
79481;BME280;68944;48.262;14.208;2023-07-31T07:39:17;98319.31;;;21.59;49.46
79481;BME280;68944;48.262;14.208;2023-07-31T07:41:43;98312.09;;;21.74;48.85
79481;BME280;68944;48.262;14.208;2023-07-31T07:44:08;98322.47;;;22.00;49.26
79481;BME280;68944;48.262;14.208;2023-07-31T07:46:34;98313.91;;;22.12;48.95
79481;BME280;68944;48.262;14.208;2023-07-31T07:48:59;98325.13;;;22.20;48.93
79481;BME280;68944;48.262;14.208;2023-07-31T07:51:25;98319.41;;;22.21;49.63
79481;BME280;68944;48.262;14.208;2023-07-31T07:53:51;98310.72;;;22.10;48.41
79481;BME280;68944;48.262;14.208;2023-07-31T07:56:16;98323.00;;;22.02;47.98
79481;BME280;68944;48.262;14.208;2023-07-31T07:58:42;98313.69;;;21.94;47.35
79481;BME280;68944;48.262;14.208;2023-07-31T08:01:07;98324.59;;;22.03;48.99
79481;BME280;68944;48.262;14.208;2023-07-31T08:03:33;98308.63;;;22.21;48.91
79481;BME280;68944;48.262;14.208;2023-07-31T08:06:01;98300.06;;;22.33;49.06
79481;BME280;68944;48.262;14.208;2023-07-31T08:08:28;98308.47;;;22.46;48.23
79481;BME280;68944;48.262;14.208;2023-07-31T08:10:54;98309.97;;;22.52;47.99
79481;BME280;68944;48.262;14.208;2023-07-31T08:13:19;98310.97;;;22.56;48.23
79481;BME280;68944;48.262;14.208;2023-07-31T08:15:45;98308.06;;;22.53;47.60
79481;BME280;68944;48.262;14.208;2023-07-31T08:18:11;98304.38;;;22.62;47.99
79481;BME280;68944;48.262;14.208;2023-07-31T08:20:37;98301.00;;;22.71;48.31
79481;BME280;68944;48.262;14.208;2023-07-31T08:23:03;98302.19;;;22.65;47.21
79481;BME280;68944;48.262;14.208;2023-07-31T08:25:28;98300.56;;;22.64;47.38
79481;BME280;68944;48.262;14.208;2023-07-31T08:27:54;98300.28;;;22.79;47.99
79481;BME280;68944;48.262;14.208;2023-07-31T08:30:19;98300.47;;;22.97;47.83
79481;BME280;68944;48.262;14.208;2023-07-31T08:32:45;98301.75;;;23.14;46.95
79481;BME280;68944;48.262;14.208;2023-07-31T08:35:10;98303.00;;;23.16;46.81
79481;BME280;68944;48.262;14.208;2023-07-31T08:37:37;98295.94;;;23.06;46.85
79481;BME280;68944;48.262;14.208;2023-07-31T08:40:04;98292.22;;;23.02;47.05
79481;BME280;68944;48.262;14.208;2023-07-31T08:42:30;98290.97;;;23.00;46.73
79481;BME280;68944;48.262;14.208;2023-07-31T08:44:56;98293.25;;;23.06;46.18
79481;BME280;68944;48.262;14.208;2023-07-31T08:47:22;98293.28;;;23.29;46.67
79481;BME280;68944;48.262;14.208;2023-07-31T08:49:49;98295.25;;;23.38;46.22
79481;BME280;68944;48.262;14.208;2023-07-31T08:52:16;98279.41;;;23.45;46.64
79481;BME280;68944;48.262;14.208;2023-07-31T08:54:42;98288.03;;;23.47;46.02
79481;BME280;68944;48.262;14.208;2023-07-31T08:57:07;98282.50;;;23.52;45.88
79481;BME280;68944;48.262;14.208;2023-07-31T08:59:34;98273.44;;;23.48;45.72
79481;BME280;68944;48.262;14.208;2023-07-31T09:02:06;98275.63;;;23.69;46.36
79481;BME280;68944;48.262;14.208;2023-07-31T09:04:33;98271.41;;;23.86;46.69
79481;BME280;68944;48.262;14.208;2023-07-31T09:07:03;98270.81;;;23.89;45.35
79481;BME280;68944;48.262;14.208;2023-07-31T09:09:32;98269.44;;;24.01;45.05
79481;BME280;68944;48.262;14.208;2023-07-31T09:11:58;98266.44;;;23.79;44.93
79481;BME280;68944;48.262;14.208;2023-07-31T09:14:27;98268.06;;;23.80;45.82
79481;BME280;68944;48.262;14.208;2023-07-31T09:16:57;98270.81;;;23.89;45.52
79481;BME280;68944;48.262;14.208;2023-07-31T09:19:33;98260.88;;;24.07;45.43
79481;BME280;68944;48.262;14.208;2023-07-31T09:22:00;98267.66;;;24.28;45.34
79481;BME280;68944;48.262;14.208;2023-07-31T09:24:27;98267.66;;;24.28;44.86
79481;BME280;68944;48.262;14.208;2023-07-31T09:26:57;98257.66;;;24.37;44.52
79481;BME280;68944;48.262;14.208;2023-07-31T09:29:27;98262.66;;;24.53;45.05
79481;BME280;68944;48.262;14.208;2023-07-31T09:31:54;98263.50;;;24.71;44.97
79481;BME280;68944;48.262;14.208;2023-07-31T09:34:20;98258.69;;;24.59;43.12
79481;BME280;68944;48.262;14.208;2023-07-31T09:36:53;98260.75;;;24.62;44.05
79481;BME280;68944;48.262;14.208;2023-07-31T09:39:19;98259.31;;;24.65;43.34
79481;BME280;68944;48.262;14.208;2023-07-31T09:41:47;98257.19;;;24.44;43.54
79481;BME280;68944;48.262;14.208;2023-07-31T09:44:18;98242.72;;;24.49;43.95
79481;BME280;68944;48.262;14.208;2023-07-31T09:46:43;98247.06;;;24.59;43.96
79481;BME280;68944;48.262;14.208;2023-07-31T09:49:10;98252.47;;;24.68;43.92
79481;BME280;68944;48.262;14.208;2023-07-31T09:51:37;98244.41;;;24.85;44.40
79481;BME280;68944;48.262;14.208;2023-07-31T09:54:09;98242.78;;;24.75;42.77
79481;BME280;68944;48.262;14.208;2023-07-31T09:56:36;98242.72;;;24.58;42.07
79481;BME280;68944;48.262;14.208;2023-07-31T09:59:03;98230.19;;;24.71;42.54
79481;BME280;68944;48.262;14.208;2023-07-31T10:01:29;98228.91;;;24.77;42.76
79481;BME280;68944;48.262;14.208;2023-07-31T10:03:55;98226.81;;;24.65;41.61
79481;BME280;68944;48.262;14.208;2023-07-31T10:06:23;98220.47;;;24.70;41.96
79481;BME280;68944;48.262;14.208;2023-07-31T10:08:51;98215.69;;;24.75;42.67
79481;BME280;68944;48.262;14.208;2023-07-31T10:11:17;98216.50;;;24.85;42.82
79481;BME280;68944;48.262;14.208;2023-07-31T10:13:44;98210.97;;;24.99;43.09
79481;BME280;68944;48.262;14.208;2023-07-31T10:16:10;98203.91;;;24.98;40.37
79481;BME280;68944;48.262;14.208;2023-07-31T10:18:38;98210.16;;;24.98;41.29
79481;BME280;68944;48.262;14.208;2023-07-31T10:21:05;98199.47;;;25.20;42.13
79481;BME280;68944;48.262;14.208;2023-07-31T10:23:31;98210.63;;;25.18;39.77
79481;BME280;68944;48.262;14.208;2023-07-31T10:25:58;98203.63;;;25.08;39.81
79481;BME280;68944;48.262;14.208;2023-07-31T10:28:24;98196.91;;;25.15;39.35
79481;BME280;68944;48.262;14.208;2023-07-31T10:30:50;98194.00;;;25.38;39.86
79481;BME280;68944;48.262;14.208;2023-07-31T10:33:17;98187.28;;;25.44;40.49
79481;BME280;68944;48.262;14.208;2023-07-31T10:35:43;98191.59;;;25.54;39.35
79481;BME280;68944;48.262;14.208;2023-07-31T10:38:10;98183.25;;;25.68;39.67
79481;BME280;68944;48.262;14.208;2023-07-31T10:40:38;98174.34;;;25.59;39.47
79481;BME280;68944;48.262;14.208;2023-07-31T10:43:05;98183.31;;;25.50;39.42
79481;BME280;68944;48.262;14.208;2023-07-31T10:48:03;98179.69;;;25.85;39.92
79481;BME280;68944;48.262;14.208;2023-07-31T10:50:30;98165.16;;;25.90;39.73
79481;BME280;68944;48.262;14.208;2023-07-31T10:52:59;98173.41;;;26.02;39.22
79481;BME280;68944;48.262;14.208;2023-07-31T10:55:31;98160.19;;;25.92;38.92
79481;BME280;68944;48.262;14.208;2023-07-31T10:58:05;98165.34;;;25.85;38.45
79481;BME280;68944;48.262;14.208;2023-07-31T11:00:31;98148.56;;;25.92;38.37
79481;BME280;68944;48.262;14.208;2023-07-31T11:03:05;98157.91;;;26.03;37.99
79481;BME280;68944;48.262;14.208;2023-07-31T11:05:51;98151.34;;;26.34;38.21
79481;BME280;68944;48.262;14.208;2023-07-31T11:08:26;98157.88;;;26.12;37.85
79481;BME280;68944;48.262;14.208;2023-07-31T11:13:31;98144.84;;;26.27;37.34
79481;BME280;68944;48.262;14.208;2023-07-31T11:15:57;98136.19;;;26.33;37.73
79481;BME280;68944;48.262;14.208;2023-07-31T11:18:24;98136.84;;;26.30;38.07
79481;BME280;68944;48.262;14.208;2023-07-31T11:20:49;98138.19;;;26.45;37.60
79481;BME280;68944;48.262;14.208;2023-07-31T11:23:16;98142.78;;;26.54;37.50
79481;BME280;68944;48.262;14.208;2023-07-31T11:25:42;98127.06;;;26.59;36.86
79481;BME280;68944;48.262;14.208;2023-07-31T11:28:10;98127.81;;;26.47;37.14
79481;BME280;68944;48.262;14.208;2023-07-31T11:30:37;98136.91;;;26.21;36.92
79481;BME280;68944;48.262;14.208;2023-07-31T11:33:03;98128.88;;;26.04;36.86
79481;BME280;68944;48.262;14.208;2023-07-31T11:35:50;98117.84;;;26.30;36.79
79481;BME280;68944;48.262;14.208;2023-07-31T11:38:26;98122.09;;;26.40;36.40
79481;BME280;68944;48.262;14.208;2023-07-31T11:40:53;98114.22;;;26.47;36.63
79481;BME280;68944;48.262;14.208;2023-07-31T11:43:19;98116.25;;;26.72;36.83
79481;BME280;68944;48.262;14.208;2023-07-31T11:45:47;98106.53;;;27.05;36.65
79481;BME280;68944;48.262;14.208;2023-07-31T11:48:26;98105.94;;;27.33;37.57
79481;BME280;68944;48.262;14.208;2023-07-31T11:50:54;98074.88;;;27.34;36.49
79481;BME280;68944;48.262;14.208;2023-07-31T11:53:47;98103.00;;;27.51;36.55
79481;BME280;68944;48.262;14.208;2023-07-31T11:56:17;98106.63;;;27.43;36.64
79481;BME280;68944;48.262;14.208;2023-07-31T11:58:49;98097.75;;;27.21;35.88
79481;BME280;68944;48.262;14.208;2023-07-31T12:01:15;98103.75;;;27.14;36.27
79481;BME280;68944;48.262;14.208;2023-07-31T12:03:45;98098.00;;;27.28;35.68
79481;BME280;68944;48.262;14.208;2023-07-31T12:06:11;98102.41;;;27.45;35.75
79481;BME280;68944;48.262;14.208;2023-07-31T12:08:37;98095.97;;;27.37;36.15
79481;BME280;68944;48.262;14.208;2023-07-31T12:11:05;98089.59;;;27.21;35.78
79481;BME280;68944;48.262;14.208;2023-07-31T12:13:32;98088.81;;;27.45;36.31
79481;BME280;68944;48.262;14.208;2023-07-31T12:16:00;98092.47;;;27.75;35.27
79481;BME280;68944;48.262;14.208;2023-07-31T12:18:29;98084.88;;;27.93;35.06
79481;BME280;68944;48.262;14.208;2023-07-31T12:20:57;98082.59;;;28.08;34.60
79481;BME280;68944;48.262;14.208;2023-07-31T12:23:25;98080.66;;;28.08;34.53
79481;BME280;68944;48.262;14.208;2023-07-31T12:28:29;98067.78;;;27.80;34.75
79481;BME280;68944;48.262;14.208;2023-07-31T12:31:00;98062.09;;;27.72;34.92
79481;BME280;68944;48.262;14.208;2023-07-31T12:33:31;98059.81;;;27.75;35.00
79481;BME280;68944;48.262;14.208;2023-07-31T12:36:00;98063.56;;;27.70;35.03
79481;BME280;68944;48.262;14.208;2023-07-31T12:38:25;98029.75;;;27.71;34.79
79481;BME280;68944;48.262;14.208;2023-07-31T12:40:51;98040.03;;;28.15;33.83
79481;BME280;68944;48.262;14.208;2023-07-31T12:43:16;98046.78;;;27.93;34.55
79481;BME280;68944;48.262;14.208;2023-07-31T12:45:42;98034.66;;;27.65;34.81
79481;BME280;68944;48.262;14.208;2023-07-31T12:48:07;98031.63;;;27.79;34.07
79481;BME280;68944;48.262;14.208;2023-07-31T12:50:33;98024.56;;;27.91;34.29
79481;BME280;68944;48.262;14.208;2023-07-31T12:53:01;98031.47;;;27.76;33.81
79481;BME280;68944;48.262;14.208;2023-07-31T12:55:28;98019.13;;;27.66;34.14
79481;BME280;68944;48.262;14.208;2023-07-31T12:57:55;98017.19;;;27.91;33.86
79481;BME280;68944;48.262;14.208;2023-07-31T13:00:21;98018.16;;;28.12;33.92
79481;BME280;68944;48.262;14.208;2023-07-31T13:02:47;98006.56;;;28.15;33.49